createdAt,value
2019-05-05T00:02:55.532Z,3.85
2019-05-05T00:08:01.876Z,1.70
2019-05-05T00:13:15.172Z,2.20
2019-05-05T00:18:25.290Z,2.05
2019-05-05T00:23:31.748Z,3.65
2019-05-05T00:28:37.838Z,6.33
2019-05-05T00:33:44.869Z,8.08
2019-05-05T00:38:52.263Z,3.27
2019-05-05T00:43:58.592Z,2.47
2019-05-05T00:49:05.398Z,5.17
2019-05-05T00:54:11.818Z,6.20
2019-05-05T00:59:19.784Z,4.08
2019-05-05T01:04:35.112Z,7.22
2019-05-05T01:09:42.202Z,12.05
2019-05-05T01:14:49.013Z,14.60
2019-05-05T01:20:03.471Z,12.45
2019-05-05T01:25:05.263Z,9.30
2019-05-05T01:30:15.936Z,11.60
2019-05-05T01:35:22.289Z,16.20
2019-05-05T01:40:59.243Z,18.90
2019-05-05T01:46:05.616Z,13.10
2019-05-05T01:51:11.650Z,11.40
2019-05-05T01:56:18.734Z,8.23
2019-05-05T02:01:24.820Z,7.17
2019-05-05T02:06:31.091Z,5.95
2019-05-05T02:11:37.367Z,4.55
2019-05-05T02:16:45.193Z,4.15
2019-05-05T02:21:54.595Z,5.20
2019-05-05T02:27:01.131Z,5.20
2019-05-05T02:32:18.847Z,5.00
2019-05-05T02:37:25.826Z,4.70
2019-05-05T02:42:35.264Z,4.20
2019-05-05T02:48:15.138Z,4.33
2019-05-05T02:53:21.734Z,4.25
2019-05-05T02:58:30.788Z,4.42
2019-05-05T03:03:39.238Z,3.90
2019-05-05T03:08:46.742Z,3.30
2019-05-05T03:13:55.832Z,3.50
2019-05-05T03:19:03.541Z,3.57
2019-05-05T03:24:10.336Z,3.33
2019-05-05T03:29:19.966Z,3.23
2019-05-05T03:34:27.096Z,3.33
2019-05-05T03:39:34.167Z,3.30
2019-05-05T03:44:51.471Z,3.20
2019-05-05T03:49:58.565Z,2.97
2019-05-05T03:55:05.348Z,2.90
2019-05-05T04:00:14.296Z,3.05
2019-05-05T04:05:45.462Z,3.47
2019-05-05T04:10:51.777Z,3.22
2019-05-05T04:16:24.296Z,2.83
2019-05-05T04:21:33.887Z,2.77
2019-05-05T04:26:38.606Z,2.77
2019-05-05T04:31:44.826Z,2.80
2019-05-05T04:36:50.693Z,3.00
2019-05-05T04:41:56.902Z,2.70
2019-05-05T04:47:10.543Z,2.77
2019-05-05T04:52:17.437Z,2.80
2019-05-05T04:57:24.108Z,2.70
2019-05-05T05:02:43.644Z,3.60
2019-05-05T05:07:49.861Z,3.33
2019-05-05T05:12:55.920Z,4.47
2019-05-05T05:18:09.699Z,4.40
2019-05-05T05:23:16.241Z,3.33
2019-05-05T05:28:23.662Z,3.77
2019-05-05T05:33:30.151Z,4.03
2019-05-05T05:38:36.365Z,4.53
2019-05-05T05:44:03.590Z,33.63
2019-05-05T05:49:24.132Z,7.17
2019-05-05T05:54:30.536Z,7.17
2019-05-05T05:59:36.615Z,4.33
2019-05-05T06:04:44.574Z,3.52
2019-05-05T06:09:50.977Z,4.30
2019-05-05T06:14:57.057Z,4.22
2019-05-05T06:20:04.046Z,3.35
2019-05-05T06:25:10.595Z,3.20
2019-05-05T06:30:17.222Z,3.00
2019-05-05T06:35:24.484Z,3.10
2019-05-05T06:40:45.664Z,2.85
2019-05-05T06:45:54.959Z,2.50
2019-05-05T06:51:00.918Z,2.77
2019-05-05T06:56:07.271Z,2.60
2019-05-05T07:01:14.316Z,2.50
2019-05-05T07:06:23.790Z,2.20
2019-05-05T07:11:29.594Z,2.85
2019-05-05T07:16:35.705Z,3.00
2019-05-05T07:21:43.655Z,2.85
2019-05-05T07:26:50.555Z,2.60
2019-05-05T07:31:56.672Z,2.95
2019-05-05T07:37:03.828Z,3.00
2019-05-05T07:42:10.016Z,2.65
2019-05-05T07:47:16.014Z,2.80
2019-05-05T07:52:23.895Z,2.85
2019-05-05T07:57:30.105Z,2.30
2019-05-05T08:02:36.466Z,2.22
2019-05-05T08:07:44.655Z,4.03
2019-05-05T08:12:50.636Z,2.15
2019-05-05T08:18:15.213Z,2.47
2019-05-05T08:23:39.076Z,2.80
2019-05-05T08:28:59.072Z,3.35
2019-05-05T08:34:05.666Z,2.77
2019-05-05T08:39:11.827Z,2.45
2019-05-05T08:44:18.331Z,2.80
2019-05-05T08:49:24.569Z,2.05
2019-05-05T08:54:30.744Z,2.25
2019-05-05T08:59:36.967Z,1.82
2019-05-05T09:04:44.659Z,1.67
2019-05-05T09:09:50.826Z,1.90
2019-05-05T09:14:57.330Z,1.52
2019-05-05T09:20:04.594Z,1.40
2019-05-05T09:25:24.397Z,1.30
2019-05-05T09:30:39.517Z,1.32
2019-05-05T09:35:45.865Z,1.30
2019-05-05T09:40:54.261Z,1.52
2019-05-05T09:45:59.955Z,1.45
2019-05-05T09:51:06.472Z,1.32
2019-05-05T09:56:14.577Z,1.05
2019-05-05T10:01:20.738Z,1.22
2019-05-05T10:06:27.053Z,1.27
2019-05-05T10:11:34.949Z,1.45
2019-05-05T10:16:40.939Z,1.10
2019-05-05T10:21:47.001Z,1.12
2019-05-05T10:26:54.329Z,1.52
2019-05-05T10:32:00.529Z,1.52
2019-05-05T10:37:06.664Z,1.00
2019-05-05T10:42:14.498Z,1.25
2019-05-05T10:47:20.447Z,1.00
2019-05-05T10:52:26.739Z,1.40
2019-05-05T10:57:34.133Z,1.40
2019-05-05T11:02:40.425Z,1.20
2019-05-05T11:07:47.220Z,1.10
2019-05-05T11:12:53.577Z,1.05
2019-05-05T11:17:59.821Z,1.30
2019-05-05T11:23:06.039Z,1.05
2019-05-05T11:28:12.424Z,1.57
2019-05-05T11:33:55.911Z,2.10
2019-05-05T11:39:03.979Z,1.20
2019-05-05T11:44:10.252Z,1.22
2019-05-05T11:49:16.311Z,1.22
2019-05-05T11:54:24.485Z,1.20
2019-05-05T11:59:30.435Z,1.42
2019-05-05T12:04:36.589Z,1.22
2019-05-05T12:09:48.486Z,0.70
2019-05-05T12:14:54.886Z,0.90
2019-05-05T12:20:04.732Z,1.07
2019-05-05T12:25:29.367Z,0.70
2019-05-05T12:30:35.498Z,0.90
2019-05-05T12:35:41.683Z,1.10
2019-05-05T12:40:47.907Z,1.82
2019-05-05T12:46:04.507Z,1.30
2019-05-05T12:51:11.015Z,1.42
2019-05-05T12:56:17.148Z,1.70
2019-05-05T13:01:28.494Z,1.92
2019-05-05T13:06:34.902Z,1.12
2019-05-05T13:11:41.218Z,1.52
2019-05-05T13:16:52.925Z,1.20
2019-05-05T13:22:19.066Z,1.25
2019-05-05T13:27:28.543Z,1.75
2019-05-05T13:32:35.198Z,1.50
2019-05-05T13:37:41.398Z,1.17
2019-05-05T13:42:47.513Z,1.40
2019-05-05T13:47:54.130Z,1.50
2019-05-05T13:53:00.325Z,1.20
2019-05-05T13:58:08.738Z,1.52
2019-05-05T14:03:14.402Z,1.32
2019-05-05T14:08:20.488Z,1.12
2019-05-05T14:13:26.535Z,2.15
2019-05-05T14:18:32.735Z,1.40
2019-05-05T14:23:59.746Z,0.90
2019-05-05T14:29:07.654Z,0.80
2019-05-05T14:34:21.133Z,0.80
2019-05-05T14:39:26.960Z,1.10
2019-05-05T14:44:34.345Z,1.20
2019-05-05T14:49:40.347Z,0.90
2019-05-05T14:54:46.672Z,1.02
2019-05-05T14:59:54.025Z,1.05
2019-05-05T15:05:15.938Z,1.05
2019-05-05T15:10:41.034Z,1.10
2019-05-05T15:15:48.143Z,1.05
2019-05-05T15:20:54.783Z,1.20
2019-05-05T15:26:01.537Z,1.02
2019-05-05T15:31:07.543Z,1.27
2019-05-05T15:36:13.946Z,1.42
2019-05-05T15:41:20.061Z,1.20
2019-05-05T15:46:26.238Z,1.77
2019-05-05T15:51:34.218Z,1.05
2019-05-05T15:56:40.052Z,1.30
2019-05-05T16:01:45.996Z,1.10
2019-05-05T16:06:53.908Z,1.35
2019-05-05T16:11:59.992Z,1.10
2019-05-05T16:17:27.974Z,1.10
2019-05-05T16:22:59.483Z,1.10
2019-05-05T16:28:05.757Z,1.10
2019-05-05T16:33:14.286Z,1.50
2019-05-05T16:38:20.616Z,1.30
2019-05-05T16:43:26.865Z,1.40
2019-05-05T16:48:34.372Z,1.45
2019-05-05T16:53:40.535Z,1.05
2019-05-05T16:58:46.624Z,1.27
2019-05-05T17:03:54.243Z,1.37
2019-05-05T17:09:00.426Z,1.00
2019-05-05T17:14:23.446Z,1.50
2019-05-05T17:19:44.660Z,1.42
2019-05-05T17:24:50.910Z,4.72
2019-05-05T17:29:57.058Z,3.08
2019-05-05T17:35:03.797Z,1.05
2019-05-05T17:40:18.118Z,1.42
2019-05-05T17:45:58.376Z,1.40
2019-05-05T17:51:13.901Z,1.25
2019-05-05T17:56:20.519Z,1.30
2019-05-05T18:01:26.758Z,0.80
2019-05-05T18:06:44.070Z,1.10
2019-05-05T18:12:23.489Z,2.87
2019-05-05T18:17:29.161Z,1.20
2019-05-05T18:22:35.169Z,1.10
2019-05-05T18:27:41.523Z,1.20
2019-05-05T18:32:47.819Z,1.10
2019-05-05T18:37:54.446Z,1.60
2019-05-05T18:43:03.922Z,2.15
2019-05-05T18:48:10.047Z,2.20
2019-05-05T18:53:16.594Z,1.98
2019-05-05T18:58:29.697Z,1.75
2019-05-05T19:03:34.629Z,1.70
2019-05-05T19:08:53.586Z,1.65
2019-05-05T19:13:54.067Z,1.57
2019-05-05T19:19:00.301Z,1.70
2019-05-05T19:24:06.738Z,1.70
2019-05-05T19:29:13.561Z,1.65
2019-05-05T19:34:19.828Z,1.30
2019-05-05T19:39:25.655Z,1.30
2019-05-05T19:44:33.855Z,1.30
2019-05-05T19:49:41.990Z,1.30
2019-05-05T19:54:48.046Z,1.50
2019-05-05T19:59:54.400Z,2.17
2019-05-05T20:05:00.588Z,7.50
2019-05-05T20:10:07.165Z,17.27
2019-05-05T20:15:17.740Z,40.65
2019-05-05T20:20:23.841Z,4.83
2019-05-05T20:25:30.070Z,4.83
2019-05-05T20:30:37.291Z,3.40
2019-05-05T20:35:49.769Z,5.78
2019-05-05T20:41:14.177Z,6.78
2019-05-05T20:46:23.729Z,7.53
2019-05-05T20:51:29.905Z,9.03
2019-05-05T20:56:36.230Z,10.50
2019-05-05T21:01:43.891Z,9.38
2019-05-05T21:06:50.182Z,12.28
2019-05-05T21:11:56.640Z,13.78
2019-05-05T21:17:04.044Z,33.73
2019-05-05T21:22:27.878Z,38.67
2019-05-05T21:27:34.125Z,21.37
2019-05-05T21:32:40.280Z,21.73
2019-05-05T21:37:46.427Z,37.95
2019-05-05T21:42:54.154Z,34.75
2019-05-05T21:48:00.055Z,19.05
2019-05-05T21:53:14.023Z,10.13
2019-05-05T21:58:38.940Z,15.70
2019-05-05T22:03:45.406Z,16.20
2019-05-05T22:08:53.304Z,16.55
2019-05-05T22:13:59.505Z,19.55
2019-05-05T22:19:07.596Z,21.87
2019-05-05T22:24:18.349Z,20.27
2019-05-05T22:29:25.975Z,15.43
2019-05-05T22:34:33.529Z,12.30
2019-05-05T22:39:39.616Z,11.22
2019-05-05T22:44:45.838Z,11.30
2019-05-05T22:49:53.991Z,10.00
2019-05-05T22:55:00.153Z,10.70
2019-05-05T23:00:23.110Z,11.03
2019-05-05T23:05:38.488Z,11.15
2019-05-05T23:10:44.814Z,10.75
2019-05-05T23:16:00.583Z,9.53
2019-05-05T23:21:28.463Z,9.95
2019-05-05T23:26:36.234Z,10.38
2019-05-05T23:31:44.405Z,10.58
2019-05-05T23:36:50.627Z,6.45
2019-05-05T23:41:57.103Z,8.13
2019-05-05T23:47:04.418Z,7.42
2019-05-05T23:52:10.757Z,6.45
2019-05-05T23:57:16.944Z,5.72
